Amazon — A8UI8 — position and weather

sailwx.info

Track history (hours):
 
Tides and Currents Weather Stations Pressure Air Temp Water Temp Dewpoint Dewpoint Depression Visibility Wind Speed Wind Dir Waves Ship Positions

Amazon

Last reported at 2018-Mar-30 07:35 UTC. Time now 2018-Apr-25 16:13 UTC.
Position S 06°00' E 010°38'.
Warning: this ship's position is 26 days out of date.

Length 275 m; draft 14.9 m.

Type: Ship. MMSI: 636014503.

Date/timePositionNaut miles runAvg speedWind from/ knotsBaromVisibWave heightAir tempDewpointWater temp
2018-Mar-30 07:35S 06°00' E 010°38'312.6
2018-Mar-30 07:20S 05°59' E 010°41'712.7
2018-Mar-30 06:49S 05°57' E 010°48'412.7
2018-Mar-30 06:29S 05°56' E 010°52'1912.9
2018-Mar-30 05:00S 05°51' E 011°11'613.0
2018-Mar-30 04:30S 05°49' E 011°17'713.1
2018-Mar-30 03:59S 05°47' E 011°23'612.9
2018-Mar-30 03:30S 05°45' E 011°29'612.8
2018-Mar-30 03:00S 05°44' E 011°35'712.9
2018-Mar-30 02:28S 05°40' E 011°42'812.7
2018-Mar-30 01:50S 05°36' E 011°49'412.6
2018-Mar-30 01:30S 05°34' E 011°52'7 3.7
2018-Mar-29 23:37S 05°31' E 011°58'2 0.0
2018-Mar-28 10:49S 05°31' E 011°60'1 1.4
2018-Mar-28 10:07S 05°32' E 011°59'1 4.4
2018-Mar-28 09:55S 05°32' E 011°59'4 0.4
2018-Mar-27 22:52S 05°28' E 011°56'12 4.2
2018-Mar-27 20:01S 05°28' E 011°44'0 5.5
2018-Mar-27 20:00S 05°28' E 011°44'3 5.2
2018-Mar-27 19:26S 05°28' E 011°41'2 4.6
2018-Mar-27 18:59S 05°27' E 011°39'2 4.3
2018-Mar-27 18:30S 05°26' E 011°38'2 4.3
2018-Mar-27 18:00S 05°25' E 011°36'2 4.3
2018-Mar-27 17:30S 05°24' E 011°34'2 4.5
2018-Mar-27 17:00S 05°22' E 011°33'2 4.5
2018-Mar-27 16:29S 05°20' E 011°31'2 4.3
2018-Mar-27 16:00S 05°19' E 011°29'2 4.5
2018-Mar-27 15:30S 05°17' E 011°28'3 5.1
2018-Mar-27 15:00S 05°16' E 011°26'3 5.3
2018-Mar-27 14:30S 05°14' E 011°24'3 5.6
2018-Mar-27 14:00S 05°12' E 011°22'3 4.9
2018-Mar-27 13:29S 05°10' E 011°20'2 4.3
2018-Mar-27 13:00S 05°10' E 011°18'2 4.5
2018-Mar-27 12:30S 05°09' E 011°16'3 5.8
2018-Mar-27 11:59S 05°08' E 011°13'3 7.1
2018-Mar-27 11:30S 05°08' E 011°10'4 7.5
2018-Mar-27 11:00S 05°06' E 011°06'4 7.6
2018-Mar-27 10:30S 05°04' E 011°03'4 7.6
2018-Mar-27 10:00S 05°03' E 010°59'4 7.6
2018-Mar-27 09:30S 05°01' E 010°56'  
2018-Mar-21 18:48N 05°26' E 001°20'312.1
2018-Mar-21 18:30N 05°30' E 001°20'712.0
2018-Mar-21 17:54N 05°37' E 001°20'512.0
2018-Mar-21 17:28N 05°42' E 001°20'611.9
2018-Mar-21 17:00N 05°48' E 001°19'612.4
2018-Mar-21 16:30N 05°54' E 001°17'612.1
2018-Mar-21 16:00N 05°59' E 001°15'1 1.8
2018-Mar-21 15:27N 06°00' E 001°15'0 0.1
2018-Mar-21 15:00N 06°00' E 001°15'0 0.0
2018-Mar-21 14:30N 06°00' E 001°15'0 0.0
2018-Mar-21 14:00N 06°00' E 001°15'0 0.0
2018-Mar-21 13:24N 06°00' E 001°15'0 0.0
2018-Mar-21 07:27N 06°00' E 001°15'0 0.0
2018-Mar-21 06:57N 06°00' E 001°15'0 0.0
2018-Mar-21 06:30N 06°00' E 001°15'0 0.0
2018-Mar-21 06:00N 06°00' E 001°15'0 0.0
2018-Mar-21 02:42N 06°00' E 001°15'0 0.4
2018-Mar-21 02:13N 06°00' E 001°15'0 1.0
2018-Mar-21 01:59N 06°00' E 001°14'  
Track history (hours):
 
Tides and Currents Weather Stations Pressure Air Temp Water Temp Dewpoint Dewpoint Depression Visibility Wind Speed Wind Dir Waves Ship Positions

Amazon

Last reported at 2018-Mar-30 07:35 UTC. Time now 2018-Apr-25 16:13 UTC.
Position S 06°00' E 010°38'.
Warning: this ship's position is 26 days out of date.

Length 275 m; draft 14.9 m.

Type: Ship. MMSI: 636014503.

Date/timePositionNaut miles runAvg speedWind from/ knotsBaromVisibWave heightAir tempDewpointWater temp
2018-Mar-30 07:35S 06°00' E 010°38'312.6
2018-Mar-30 07:20S 05°59' E 010°41'712.7
2018-Mar-30 06:49S 05°57' E 010°48'412.7
2018-Mar-30 06:29S 05°56' E 010°52'1912.9
2018-Mar-30 05:00S 05°51' E 011°11'613.0
2018-Mar-30 04:30S 05°49' E 011°17'713.1
2018-Mar-30 03:59S 05°47' E 011°23'612.9
2018-Mar-30 03:30S 05°45' E 011°29'612.8
2018-Mar-30 03:00S 05°44' E 011°35'712.9
2018-Mar-30 02:28S 05°40' E 011°42'812.7
2018-Mar-30 01:50S 05°36' E 011°49'412.6
2018-Mar-30 01:30S 05°34' E 011°52'7 3.7
2018-Mar-29 23:37S 05°31' E 011°58'2 0.0
2018-Mar-28 10:49S 05°31' E 011°60'1 1.4
2018-Mar-28 10:07S 05°32' E 011°59'1 4.4
2018-Mar-28 09:55S 05°32' E 011°59'4 0.4
2018-Mar-27 22:52S 05°28' E 011°56'12 4.2
2018-Mar-27 20:01S 05°28' E 011°44'0 5.5
2018-Mar-27 20:00S 05°28' E 011°44'3 5.2
2018-Mar-27 19:26S 05°28' E 011°41'2 4.6
2018-Mar-27 18:59S 05°27' E 011°39'2 4.3
2018-Mar-27 18:30S 05°26' E 011°38'2 4.3
2018-Mar-27 18:00S 05°25' E 011°36'2 4.3
2018-Mar-27 17:30S 05°24' E 011°34'2 4.5
2018-Mar-27 17:00S 05°22' E 011°33'2 4.5
2018-Mar-27 16:29S 05°20' E 011°31'2 4.3
2018-Mar-27 16:00S 05°19' E 011°29'2 4.5
2018-Mar-27 15:30S 05°17' E 011°28'3 5.1
2018-Mar-27 15:00S 05°16' E 011°26'3 5.3
2018-Mar-27 14:30S 05°14' E 011°24'3 5.6
2018-Mar-27 14:00S 05°12' E 011°22'3 4.9
2018-Mar-27 13:29S 05°10' E 011°20'2 4.3
2018-Mar-27 13:00S 05°10' E 011°18'2 4.5
2018-Mar-27 12:30S 05°09' E 011°16'3 5.8
2018-Mar-27 11:59S 05°08' E 011°13'3 7.1
2018-Mar-27 11:30S 05°08' E 011°10'4 7.5
2018-Mar-27 11:00S 05°06' E 011°06'4 7.6
2018-Mar-27 10:30S 05°04' E 011°03'4 7.6
2018-Mar-27 10:00S 05°03' E 010°59'4 7.6
2018-Mar-27 09:30S 05°01' E 010°56'  
2018-Mar-21 18:48N 05°26' E 001°20'312.1
2018-Mar-21 18:30N 05°30' E 001°20'712.0
2018-Mar-21 17:54N 05°37' E 001°20'512.0
2018-Mar-21 17:28N 05°42' E 001°20'611.9
2018-Mar-21 17:00N 05°48' E 001°19'612.4
2018-Mar-21 16:30N 05°54' E 001°17'612.1
2018-Mar-21 16:00N 05°59' E 001°15'1 1.8
2018-Mar-21 15:27N 06°00' E 001°15'0 0.1
2018-Mar-21 15:00N 06°00' E 001°15'0 0.0
2018-Mar-21 14:30N 06°00' E 001°15'0 0.0
2018-Mar-21 14:00N 06°00' E 001°15'0 0.0
2018-Mar-21 13:24N 06°00' E 001°15'0 0.0
2018-Mar-21 07:27N 06°00' E 001°15'0 0.0
2018-Mar-21 06:57N 06°00' E 001°15'0 0.0
2018-Mar-21 06:30N 06°00' E 001°15'0 0.0
2018-Mar-21 06:00N 06°00' E 001°15'0 0.0
2018-Mar-21 02:42N 06°00' E 001°15'0 0.4
2018-Mar-21 02:13N 06°00' E 001°15'0 1.0
2018-Mar-21 01:59N 06°00' E 001°14'  

Dump ship's entire track history